Allenton, Missouri
Current Conditions -  °F | °C
As of 1:54 AM on Thursday 29 Jan 2015 (Local Time) from KSUS Reporting Station
Clear Clear  
Wind Chill: 12°   Ceiling: Unl
Heat Index: 12°   Visibility: 10mi
Dew Point:   Wind: 10mph
Humidity: 59%   Direction: 220°SW
Pressure: 29.77"   Gusts: NA
Location:  38.5°N, 90.68°W
Report Text: KSUS 290754Z AUTO 22009KT 10SM CLR 12/04 A2977 RMK AO2 SLP082 T01170039
Loading
Personal Weather Stations






























Interactive Weather Map New forecast layout! Learn more

10-Day Weather Forecast

Advertisements
Track Severe Weather on mobile